createdAt,value
2023-04-22T00:04:51.311Z,73.51
2023-04-22T00:09:58.212Z,74.08
2023-04-22T00:15:06.963Z,74.44
2023-04-22T00:20:15.555Z,74.02
2023-04-22T00:25:21.856Z,74.49
2023-04-22T00:30:30.178Z,71.67
2023-04-22T00:35:37.071Z,72.59
2023-04-22T00:40:43.492Z,74.30
2023-04-22T00:45:51.796Z,74.64
2023-04-22T00:50:57.984Z,74.90
2023-04-22T00:56:04.449Z,74.11
2023-04-22T01:01:13.098Z,74.31
2023-04-22T01:06:21.898Z,73.36
2023-04-22T01:11:28.201Z,73.62
2023-04-22T01:16:39.320Z,74.45
2023-04-22T01:21:46.663Z,75.31
2023-04-22T01:26:54.499Z,75.00
2023-04-22T01:32:01.295Z,73.27
2023-04-22T01:37:11.267Z,73.63
2023-04-22T01:42:20.742Z,73.45
2023-04-22T01:47:27.885Z,74.87
2023-04-22T01:52:34.286Z,75.96
2023-04-22T01:57:42.008Z,75.23
2023-04-22T02:02:48.500Z,75.55
2023-04-22T02:07:55.595Z,75.83
2023-04-22T02:13:03.706Z,75.95
2023-04-22T02:18:10.480Z,75.78
2023-04-22T02:23:16.851Z,76.49
2023-04-22T02:28:24.599Z,75.19
2023-04-22T02:33:30.899Z,75.99
2023-04-22T02:38:37.430Z,76.29
2023-04-22T02:43:47.530Z,77.10
2023-04-22T02:48:54.381Z,77.16
2023-04-22T02:54:01.253Z,77.22
2023-04-22T02:59:09.441Z,76.89
2023-04-22T03:04:16.543Z,77.12
2023-04-22T03:09:26.159Z,76.87
2023-04-22T03:14:33.917Z,77.20
2023-04-22T03:19:40.487Z,77.47
2023-04-22T03:24:47.933Z,76.51
2023-04-22T03:29:56.368Z,76.83
2023-04-22T03:35:03.924Z,77.03
2023-04-22T03:40:13.701Z,77.66
2023-04-22T03:45:22.642Z,77.05
2023-04-22T03:50:51.937Z,77.66
2023-04-22T03:55:58.692Z,77.54
2023-04-22T04:01:07.609Z,77.70
2023-04-22T04:06:14.274Z,78.42
2023-04-22T04:11:21.584Z,78.76
2023-04-22T04:16:31.121Z,79.07
2023-04-22T04:21:44.531Z,80.04
2023-04-22T04:26:52.285Z,79.15
2023-04-22T04:32:05.226Z,79.83
2023-04-22T04:37:12.013Z,78.46
2023-04-22T04:42:33.843Z,78.03
2023-04-22T04:47:46.563Z,77.29
2023-04-22T04:52:59.685Z,75.29
2023-04-22T04:58:12.847Z,75.16
2023-04-22T05:03:21.092Z,75.86
2023-04-22T05:08:28.585Z,75.81
2023-04-22T05:13:41.930Z,75.88
2023-04-22T05:18:54.942Z,74.80
2023-04-22T05:24:01.629Z,74.65
2023-04-22T05:29:09.020Z,71.47
2023-04-22T05:34:17.426Z,70.73
2023-04-22T05:39:24.149Z,69.26
2023-04-22T05:44:31.109Z,69.00
2023-04-22T05:49:39.722Z,68.83
2023-04-22T05:54:54.443Z,67.91
2023-04-22T06:00:02.063Z,67.43
2023-04-22T06:05:13.657Z,67.07
2023-04-22T06:10:20.330Z,67.50
2023-04-22T06:15:28.771Z,66.60
2023-04-22T06:20:38.536Z,67.11
2023-04-22T06:25:44.924Z,64.31
2023-04-22T06:30:51.229Z,64.78
2023-04-22T06:35:59.605Z,65.70
2023-04-22T06:41:09.184Z,65.25
2023-04-22T06:46:19.102Z,64.13
2023-04-22T06:51:33.584Z,63.23
2023-04-22T06:56:40.885Z,61.99
2023-04-22T07:01:47.492Z,61.20
2023-04-22T07:06:56.469Z,61.11
2023-04-22T07:12:03.213Z,61.91
2023-04-22T07:17:10.332Z,62.89
2023-04-22T07:22:18.181Z,61.91
2023-04-22T07:27:24.796Z,61.57
2023-04-22T07:32:33.745Z,62.30
2023-04-22T07:37:41.782Z,62.63
2023-04-22T07:42:48.625Z,62.54
2023-04-22T07:47:55.448Z,62.72
2023-04-22T07:53:03.323Z,62.44
2023-04-22T07:58:09.740Z,62.77
2023-04-22T08:03:16.622Z,62.23
2023-04-22T08:08:25.047Z,60.53
2023-04-22T08:13:31.547Z,58.01
2023-04-22T08:18:38.281Z,59.29
2023-04-22T08:23:46.590Z,57.75
2023-04-22T08:28:52.994Z,56.99
2023-04-22T08:34:00.004Z,57.69
2023-04-22T08:39:08.005Z,57.98
2023-04-22T08:44:15.866Z,55.89
2023-04-22T08:49:23.002Z,55.41
2023-04-22T08:54:30.919Z,55.66
2023-04-22T08:59:39.287Z,56.48
2023-04-22T09:04:48.035Z,53.43
2023-04-22T09:09:57.030Z,51.29
2023-04-22T09:15:04.444Z,49.02
2023-04-22T09:20:12.628Z,45.70
2023-04-22T09:25:22.628Z,47.34
2023-04-22T09:30:31.405Z,48.68
2023-04-22T09:35:40.193Z,46.20
2023-04-22T09:40:49.132Z,43.40
2023-04-22T09:45:55.911Z,46.96
2023-04-22T09:51:02.636Z,47.29
2023-04-22T09:56:10.753Z,46.46
2023-04-22T10:01:17.238Z,44.30
2023-04-22T10:06:24.058Z,40.97
2023-04-22T10:11:32.514Z,40.51
2023-04-22T10:16:41.405Z,41.73
2023-04-22T10:21:48.968Z,42.04
2023-04-22T10:27:00.096Z,35.30
2023-04-22T10:32:25.211Z,38.84
2023-04-22T10:37:33.685Z,38.41
2023-04-22T10:42:44.886Z,39.10
2023-04-22T10:47:51.506Z,37.92
2023-04-22T10:53:00.398Z,35.92
2023-04-22T10:58:22.304Z,37.07
2023-04-22T11:03:31.423Z,37.25
2023-04-22T11:08:38.173Z,38.44
2023-04-22T11:13:47.862Z,38.13
2023-04-22T11:18:55.037Z,38.93
2023-04-22T11:24:06.497Z,40.31
2023-04-22T11:29:14.262Z,40.55
2023-04-22T11:34:21.016Z,37.27
2023-04-22T11:39:44.339Z,38.14
2023-04-22T11:45:04.249Z,35.85
2023-04-22T11:50:14.369Z,37.17
2023-04-22T11:55:23.414Z,39.72
2023-04-22T12:00:34.739Z,33.91
2023-04-22T12:05:43.301Z,34.90
2023-04-22T12:10:56.744Z,35.02
2023-04-22T12:16:08.875Z,37.17
2023-04-22T12:21:17.102Z,40.19
2023-04-22T12:26:27.748Z,40.06
2023-04-22T12:31:36.231Z,40.59
2023-04-22T12:36:42.840Z,38.46
2023-04-22T12:41:51.338Z,39.91
2023-04-22T12:46:59.300Z,37.54
2023-04-22T12:52:05.716Z,37.90
2023-04-22T12:57:12.311Z,34.13
2023-04-22T13:02:20.323Z,37.23
2023-04-22T13:07:26.988Z,36.20
2023-04-22T13:12:33.544Z,35.95
2023-04-22T13:17:41.964Z,36.17
2023-04-22T13:22:48.836Z,39.92
2023-04-22T13:27:55.421Z,38.72
2023-04-22T13:33:03.588Z,39.34
2023-04-22T13:38:10.269Z,39.06
2023-04-22T13:43:16.902Z,39.16
2023-04-22T13:48:24.857Z,39.47
2023-04-22T13:53:33.467Z,40.64
2023-04-22T13:58:42.799Z,41.26
2023-04-22T14:03:51.345Z,42.51
2023-04-22T14:08:58.071Z,41.77
2023-04-22T14:14:04.669Z,40.81
2023-04-22T14:19:12.934Z,39.33
2023-04-22T14:24:20.100Z,38.90
2023-04-22T14:29:26.926Z,40.92
2023-04-22T14:34:34.932Z,39.97
2023-04-22T14:39:41.812Z,38.02
2023-04-22T14:44:48.576Z,37.48
2023-04-22T14:49:56.796Z,40.17
2023-04-22T14:55:12.179Z,39.70
2023-04-22T15:00:27.627Z,39.59
2023-04-22T15:05:37.132Z,35.51
2023-04-22T15:10:43.772Z,38.05
2023-04-22T15:15:50.395Z,37.25
2023-04-22T15:20:58.678Z,38.00
2023-04-22T15:26:05.302Z,37.10
2023-04-22T15:31:11.972Z,36.58
2023-04-22T15:36:22.143Z,36.75
2023-04-22T15:41:29.277Z,37.09
2023-04-22T15:46:35.914Z,36.15
2023-04-22T15:51:43.935Z,36.06
2023-04-22T15:56:50.745Z,36.13
2023-04-22T16:01:57.810Z,37.35
2023-04-22T16:07:06.507Z,37.08
2023-04-22T16:12:13.948Z,35.49
2023-04-22T16:17:21.146Z,36.22
2023-04-22T16:22:29.384Z,35.69
2023-04-22T16:27:35.949Z,37.69
2023-04-22T16:32:42.740Z,38.66
2023-04-22T16:37:51.402Z,38.23
2023-04-22T16:43:03.250Z,37.82
2023-04-22T16:48:09.681Z,38.17
2023-04-22T16:53:17.663Z,39.00
2023-04-22T16:58:24.365Z,40.06
2023-04-22T17:03:31.155Z,41.32
2023-04-22T17:08:39.512Z,42.08
2023-04-22T17:13:46.153Z,43.36
2023-04-22T17:18:52.707Z,44.38
2023-04-22T17:24:02.512Z,44.50
2023-04-22T17:29:08.998Z,44.79
2023-04-22T17:34:15.519Z,45.86
2023-04-22T17:39:23.491Z,47.09
2023-04-22T17:44:30.001Z,48.43
2023-04-22T17:49:36.498Z,48.69
2023-04-22T17:54:45.067Z,48.79
2023-04-22T17:59:51.441Z,49.97
2023-04-22T18:04:57.960Z,51.87
2023-04-22T18:10:06.743Z,52.56
2023-04-22T18:15:13.404Z,54.01
2023-04-22T18:20:20.992Z,53.99
2023-04-22T18:25:30.147Z,54.28
2023-04-22T18:30:36.937Z,55.27
2023-04-22T18:35:44.586Z,55.67
2023-04-22T18:40:53.822Z,55.82
2023-04-22T18:46:00.779Z,55.62
2023-04-22T18:51:08.149Z,55.16
2023-04-22T18:56:16.253Z,55.84
2023-04-22T19:01:22.878Z,56.44
2023-04-22T19:06:30.477Z,57.41
2023-04-22T19:11:39.363Z,58.10
2023-04-22T19:16:47.377Z,58.83
2023-04-22T19:21:54.930Z,59.58
2023-04-22T19:27:07.215Z,60.44
2023-04-22T19:32:14.413Z,61.22
2023-04-22T19:37:24.144Z,61.88
2023-04-22T19:42:33.772Z,61.67
2023-04-22T19:47:41.831Z,62.64
2023-04-22T19:52:52.768Z,63.77
2023-04-22T19:58:01.827Z,63.05
2023-04-22T20:03:10.438Z,63.15
2023-04-22T20:08:20.092Z,64.00
2023-04-22T20:13:30.108Z,64.60
2023-04-22T20:18:38.287Z,64.41
2023-04-22T20:23:46.544Z,64.79
2023-04-22T20:28:55.145Z,65.65
2023-04-22T20:34:03.220Z,66.08
2023-04-22T20:39:14.534Z,65.79
2023-04-22T20:44:23.047Z,66.37
2023-04-22T20:49:30.534Z,66.50
2023-04-22T20:54:37.860Z,67.24
2023-04-22T20:59:46.197Z,67.36
2023-04-22T21:04:54.013Z,67.56
2023-04-22T21:10:01.171Z,68.30
2023-04-22T21:15:12.142Z,67.98
2023-04-22T21:20:19.852Z,68.32
2023-04-22T21:25:30.352Z,68.79
2023-04-22T21:30:39.490Z,68.70
2023-04-22T21:35:46.350Z,69.46
2023-04-22T21:40:52.703Z,69.37
2023-04-22T21:46:01.331Z,69.63
2023-04-22T21:51:08.328Z,70.31
2023-04-22T21:56:17.584Z,70.31
2023-04-22T22:01:25.945Z,70.90
2023-04-22T22:06:33.683Z,70.91
2023-04-22T22:11:40.620Z,71.21
2023-04-22T22:16:50.151Z,71.54
2023-04-22T22:21:57.194Z,71.91
2023-04-22T22:27:05.508Z,71.88
2023-04-22T22:32:13.720Z,71.40
2023-04-22T22:37:20.762Z,71.55
2023-04-22T22:42:27.756Z,71.76
2023-04-22T22:47:36.202Z,72.41
2023-04-22T22:52:43.117Z,73.45
2023-04-22T22:57:49.495Z,73.28
2023-04-22T23:02:58.248Z,73.77
2023-04-22T23:08:05.393Z,74.48
2023-04-22T23:13:12.477Z,74.62
2023-04-22T23:18:21.235Z,74.07
2023-04-22T23:23:29.763Z,74.71
2023-04-22T23:28:37.460Z,74.81
2023-04-22T23:33:46.116Z,74.37
2023-04-22T23:38:52.494Z,74.28
2023-04-22T23:43:59.202Z,73.84
2023-04-22T23:49:07.622Z,74.61
2023-04-22T23:54:14.058Z,74.32
2023-04-22T23:59:21.508Z,75.03
